Tinker Air Force Base
KTIK : now visible

Aeroporto :











RITROVATECI SU...

 
LOGIN :

Iscrizione | Disclaimer

   EN    FR    IT 

 









Sommario :    VFR   VFR Marginale   IFR   IFR Intensivo   IFR Molto Intensivo
Visibilità : 
Base nubi : 
>= 8 km
>= 3000ft
5 / 8 km
1000 / 3000 ft
1500m / 5 km
500 / 1000 ft
800 / 1500m
200 / 500 ft
< 800m
< 200 ft
Simboli :   Temporali  Nebbia  Neve Forte  Precipitazioni Forti  Vento > 20 kt







- Altitudine del aeroporto : 1291 ft


KTIK - Tinker Air Force Base

ULTIMO METAR :
  • 251156Z 36003KT 10SM CLR 22/18 A2986 RMK AO2A PK WND 14027/1059 SLP105 T02220177 10229 20206 55025

METARs OBSOLETI :
  • 251132Z 25018G23KT 10SM CLR 22/18 A2987 RMK AO2A WSHFT 27 PRESRR SLP108
  • 251117Z 29011G23KT 10SM CLR 21/19 A2980 RMK AO2A WSHFT 15 SLP084
  • 251056Z 15016G26KT 10SM FEW065 SCT095 21/20 A2977 RMK AO2A PK WND 13034/53 TSE30 PRESFR SLP074 T02070198
  • 251030Z 18014KT 10SM CLR 22/20 A2983 RMK LTG DSNT SE-SW TSE30 PRESFR SLP094
  • 250959Z 25012KT 10SM TS CLR 23/22 A2988 RMK AO2A WSHFT 44 SLP110
  • 250956Z 23011KT 10SM TS CLR 23/22 A2988 RMK AO2A TSB54 SLP110 T02250220
  • 250922Z 22005KT 10SM VCTS SCT060 BKN090 23/22 A2993 RMK LTG DSNT W-NW SLP127

TAF TAF KTIK
Valido dal 25 a 09 ore il 26 a 15 ore UTC


250900Z 2509/2615 13009KT 9000 -SHRA SCT010 BKN020 QNH2985INS
TEMPO 2509/2510 VRB15G25KT 8000 -TSRA BKN010CB OVC020
BECMG 2510/2511 15012KT 9999 NSW BKN010 BKN030 QNH2974INS
BECMG 2514/2515 15012G18KT 9999 SCT020 QNH2976INS
BECMG 2602/2603 14009KT 9999 SCT050 QNH2976INS
BECMG 2612/2613 17009KT 8000 BR SKC QNH2974INS TX32/2522Z TN21/2512Z
Nessun NOTAM noto per questo aeroporto.



MetMap, La meteo Aeronautica in un colpo d'occhio ! - Copyright ORBIFLY Dicembre 2007 - Disclaimer

ORBIFLY MET'MAP TEAM :

Programmazione e sviluppo : Alexandra Zaïnal
Concezione e sviluppo : Baudouin d'Aumeries
Co-Programmazione e sviluppo : Marc-Olivier Méhu
Supporto tecnico e logistico : Manuel Goepfert
Aiuto per la traduzione : Arnaldo La Scala

Contatto : metmap@orbifly.com




FONTI E CREDITI :

   NOAA       Earth
Advisory